createdAt,value
2018-11-23T00:00:14.799Z,1.31
2018-11-23T00:02:43.522Z,1.26
2018-11-23T00:05:10.940Z,1.23
2018-11-23T00:07:38.837Z,1.17
2018-11-23T00:10:08.294Z,1.13
2018-11-23T00:12:35.770Z,1.08
2018-11-23T00:15:03.425Z,1.02
2018-11-23T00:17:30.843Z,0.98
2018-11-23T00:19:58.363Z,0.94
2018-11-23T00:22:25.820Z,0.92
2018-11-23T00:24:53.223Z,0.88
2018-11-23T00:27:20.719Z,0.84
2018-11-23T00:29:48.215Z,0.81
2018-11-23T00:32:15.637Z,0.77
2018-11-23T00:34:43.036Z,0.73
2018-11-23T00:37:10.507Z,0.67
2018-11-23T00:39:37.996Z,0.60
2018-11-23T00:42:05.491Z,0.56
2018-11-23T00:44:32.907Z,0.64
2018-11-23T00:47:00.321Z,0.63
2018-11-23T00:49:27.767Z,0.59
2018-11-23T00:51:55.199Z,0.57
2018-11-23T00:54:22.625Z,0.53
2018-11-23T00:56:50.107Z,0.51
2018-11-23T00:59:17.556Z,0.45
2018-11-23T01:01:50.739Z,0.38
2018-11-23T01:04:18.286Z,0.35
2018-11-23T01:06:45.776Z,0.35
2018-11-23T01:09:14.579Z,0.39
2018-11-23T01:11:43.038Z,0.43
2018-11-23T01:14:10.979Z,0.43
2018-11-23T01:16:38.884Z,0.50
2018-11-23T01:19:06.759Z,0.47
2018-11-23T01:21:34.544Z,0.43
2018-11-23T01:24:02.064Z,0.41
2018-11-23T01:26:29.472Z,0.40
2018-11-23T01:28:57.028Z,0.39
2018-11-23T01:31:24.464Z,0.54
2018-11-23T01:33:51.902Z,0.59
2018-11-23T01:36:19.389Z,0.57
2018-11-23T01:38:46.786Z,0.73
2018-11-23T01:41:14.173Z,0.73
2018-11-23T01:43:41.747Z,0.70
2018-11-23T01:46:09.292Z,0.67
2018-11-23T01:48:36.723Z,0.70
2018-11-23T01:51:04.224Z,0.82
2018-11-23T01:53:31.652Z,0.84
2018-11-23T01:55:59.098Z,0.88
2018-11-23T01:58:26.828Z,0.85
2018-11-23T02:00:54.216Z,0.87
2018-11-23T02:03:21.685Z,0.82
2018-11-23T02:05:49.100Z,0.76
2018-11-23T02:08:16.623Z,0.72
2018-11-23T02:10:44.034Z,0.66
2018-11-23T02:13:11.440Z,0.59
2018-11-23T02:15:38.854Z,0.55
2018-11-23T02:18:06.256Z,0.52
2018-11-23T02:20:33.821Z,0.51
2018-11-23T02:23:01.261Z,0.49
2018-11-23T02:25:28.683Z,0.47
2018-11-23T02:27:56.236Z,0.43
2018-11-23T02:30:24.838Z,0.44
2018-11-23T02:32:52.241Z,0.40
2018-11-23T02:35:19.661Z,0.40
2018-11-23T02:37:47.105Z,0.38
2018-11-23T02:40:16.842Z,0.38
2018-11-23T02:42:44.394Z,0.34
2018-11-23T02:45:14.214Z,0.30
2018-11-23T02:47:42.599Z,0.28
2018-11-23T02:50:10.163Z,0.25
2018-11-23T02:52:38.106Z,0.22
2018-11-23T02:55:06.274Z,0.19
2018-11-23T02:57:33.802Z,0.14
2018-11-23T03:00:01.325Z,0.12
2018-11-23T03:02:28.747Z,0.08
2018-11-23T03:04:56.174Z,0.07
2018-11-23T03:07:23.615Z,0.11
2018-11-23T03:09:50.990Z,0.07
2018-11-23T03:12:18.430Z,0.00
2018-11-23T03:14:45.848Z,-0.06
2018-11-23T03:17:13.247Z,-0.07
2018-11-23T03:19:40.691Z,-0.11
2018-11-23T03:22:08.107Z,-0.14
2018-11-23T03:24:35.699Z,-0.16
2018-11-23T03:27:03.235Z,-0.15
2018-11-23T03:29:30.634Z,-0.14
2018-11-23T03:31:58.202Z,-0.16
2018-11-23T03:34:25.619Z,-0.13
2018-11-23T03:36:53.060Z,-0.09
2018-11-23T03:39:20.434Z,-0.10
2018-11-23T03:41:47.983Z,-0.08
2018-11-23T03:44:15.531Z,-0.09
2018-11-23T03:46:42.912Z,-0.06
2018-11-23T03:49:10.342Z,-0.03
2018-11-23T03:51:37.747Z,-0.03
2018-11-23T03:54:05.336Z,-0.02
2018-11-23T03:56:32.867Z,-0.02
2018-11-23T03:59:00.289Z,-0.02
2018-11-23T04:01:27.720Z,-0.02
2018-11-23T04:03:55.259Z,-0.05
2018-11-23T04:06:22.663Z,0.04
2018-11-23T04:08:50.319Z,0.06
2018-11-23T04:11:17.724Z,0.19
2018-11-23T04:13:45.229Z,0.20
2018-11-23T04:16:12.759Z,0.18
2018-11-23T04:18:40.159Z,0.17
2018-11-23T04:21:07.666Z,0.13
2018-11-23T04:23:35.084Z,0.17
2018-11-23T04:26:02.634Z,0.14
2018-11-23T04:28:30.022Z,0.14
2018-11-23T04:30:57.423Z,0.12
2018-11-23T04:33:25.526Z,0.08
2018-11-23T04:35:53.165Z,0.06
2018-11-23T04:38:20.578Z,0.08
2018-11-23T04:40:48.102Z,0.13
2018-11-23T04:43:15.626Z,0.08
2018-11-23T04:45:43.026Z,0.01
2018-11-23T04:48:10.445Z,-0.08
2018-11-23T04:50:37.866Z,-0.16
2018-11-23T04:53:05.378Z,-0.18
2018-11-23T04:55:32.828Z,-0.22
2018-11-23T04:58:00.258Z,-0.20
2018-11-23T05:00:27.649Z,-0.17
2018-11-23T05:02:55.065Z,-0.18
2018-11-23T05:05:22.462Z,-0.21
2018-11-23T05:07:49.878Z,-0.21
2018-11-23T05:10:17.794Z,-0.22
2018-11-23T05:12:45.201Z,-0.29
2018-11-23T05:15:13.893Z,-0.35
2018-11-23T05:17:41.787Z,-0.42
2018-11-23T05:20:10.165Z,-0.49
2018-11-23T05:22:38.346Z,-0.48
2018-11-23T05:25:06.802Z,-0.52
2018-11-23T05:27:34.277Z,-0.51
2018-11-23T05:30:02.037Z,-0.49
2018-11-23T05:32:29.487Z,-0.46
2018-11-23T05:34:57.192Z,-0.42
2018-11-23T05:37:24.619Z,-0.42
2018-11-23T05:39:52.032Z,-0.44
2018-11-23T05:42:19.528Z,-0.43
2018-11-23T05:44:46.930Z,-0.41
2018-11-23T05:47:14.352Z,-0.38
2018-11-23T05:49:41.763Z,-0.39
2018-11-23T05:52:09.253Z,-0.38
2018-11-23T05:54:36.689Z,-0.35
2018-11-23T05:57:04.124Z,-0.33
2018-11-23T05:59:31.535Z,-0.32
2018-11-23T06:01:58.958Z,-0.29
2018-11-23T06:04:26.355Z,-0.29
2018-11-23T06:06:53.802Z,-0.28
2018-11-23T06:09:21.282Z,-0.26
2018-11-23T06:11:48.762Z,-0.26
2018-11-23T06:14:16.159Z,-0.26
2018-11-23T06:16:43.596Z,-0.25
2018-11-23T06:19:10.989Z,-0.22
2018-11-23T06:21:38.412Z,-0.23
2018-11-23T06:24:06.045Z,-0.22
2018-11-23T06:26:33.719Z,-0.22
2018-11-23T06:29:01.110Z,-0.21
2018-11-23T06:31:28.643Z,-0.17
2018-11-23T06:33:56.140Z,-0.15
2018-11-23T06:36:23.654Z,-0.15
2018-11-23T06:38:51.162Z,-0.16
2018-11-23T06:41:18.563Z,-0.16
2018-11-23T06:43:46.538Z,-0.13
2018-11-23T06:46:13.998Z,-0.12
2018-11-23T06:48:41.397Z,-0.09
2018-11-23T06:51:09.050Z,-0.05
2018-11-23T06:53:36.657Z,0.03
2018-11-23T06:56:04.843Z,0.06
2018-11-23T06:58:32.307Z,0.10
2018-11-23T07:00:59.835Z,0.12
2018-11-23T07:03:27.417Z,0.18
2018-11-23T07:05:55.323Z,0.23
2018-11-23T07:08:23.403Z,0.30
2018-11-23T07:10:50.874Z,0.40
2018-11-23T07:13:18.326Z,0.46
2018-11-23T07:15:45.781Z,0.54
2018-11-23T07:18:13.180Z,0.62
2018-11-23T07:20:40.622Z,0.74
2018-11-23T07:23:08.118Z,0.84
2018-11-23T07:25:35.690Z,0.96
2018-11-23T07:28:03.272Z,1.08
2018-11-23T07:30:30.919Z,1.29
2018-11-23T07:32:58.385Z,1.51
2018-11-23T07:35:25.826Z,1.72
2018-11-23T07:37:53.454Z,2.05
2018-11-23T07:40:34.078Z,2.58
2018-11-23T07:43:01.522Z,3.18
2018-11-23T07:45:28.958Z,3.98
2018-11-23T07:47:56.407Z,4.59
2018-11-23T07:50:23.844Z,4.76
2018-11-23T07:52:51.354Z,4.81
2018-11-23T07:55:18.892Z,4.74
2018-11-23T07:57:46.707Z,4.59
2018-11-23T08:00:16.438Z,4.60
2018-11-23T08:02:44.551Z,4.61
2018-11-23T08:05:13.379Z,4.57
2018-11-23T08:07:40.884Z,4.47
2018-11-23T08:10:09.467Z,4.14
2018-11-23T08:12:37.311Z,3.94
2018-11-23T08:15:07.459Z,3.87
2018-11-23T08:17:34.951Z,3.86
2018-11-23T08:20:02.531Z,3.97
2018-11-23T08:22:29.993Z,3.86
2018-11-23T08:24:57.390Z,3.77
2018-11-23T08:27:24.867Z,3.81
2018-11-23T08:29:52.325Z,3.88
2018-11-23T08:32:19.899Z,3.83
2018-11-23T08:34:47.531Z,3.81
2018-11-23T08:37:14.987Z,3.95
2018-11-23T08:39:42.474Z,3.89
2018-11-23T08:42:10.033Z,3.96
2018-11-23T08:44:37.414Z,4.05
2018-11-23T08:47:05.019Z,3.88
2018-11-23T08:49:32.433Z,3.78
2018-11-23T08:51:59.839Z,3.93
2018-11-23T08:54:27.341Z,3.98
2018-11-23T08:56:54.804Z,3.96
2018-11-23T08:59:22.280Z,3.98
2018-11-23T09:01:50.627Z,4.04
2018-11-23T09:04:18.059Z,4.01
2018-11-23T09:06:45.506Z,4.00
2018-11-23T09:09:12.945Z,4.02
2018-11-23T09:11:40.466Z,4.04
2018-11-23T09:14:08.921Z,4.02
2018-11-23T09:16:36.322Z,4.09
2018-11-23T09:19:04.035Z,4.22
2018-11-23T09:21:31.598Z,4.27
2018-11-23T09:23:59.061Z,4.24
2018-11-23T09:26:26.606Z,4.32
2018-11-23T09:28:53.975Z,4.38
2018-11-23T09:31:21.419Z,4.47
2018-11-23T09:33:48.838Z,4.42
2018-11-23T09:36:16.289Z,4.47
2018-11-23T09:38:43.718Z,4.53
2018-11-23T09:41:11.182Z,4.58
2018-11-23T09:43:38.658Z,4.60
2018-11-23T09:46:06.183Z,4.58
2018-11-23T09:48:33.695Z,4.59
2018-11-23T09:51:01.187Z,4.53
2018-11-23T09:53:28.601Z,4.50
2018-11-23T09:55:56.090Z,4.52
2018-11-23T09:58:23.585Z,4.46
2018-11-23T10:00:51.066Z,4.55
2018-11-23T10:03:18.583Z,4.60
2018-11-23T10:05:46.107Z,4.65
2018-11-23T10:08:13.537Z,4.59
2018-11-23T10:10:41.076Z,4.63
2018-11-23T10:13:08.554Z,4.69
2018-11-23T10:15:35.982Z,4.71
2018-11-23T10:18:03.482Z,4.73
2018-11-23T10:20:32.108Z,4.78
2018-11-23T10:22:59.530Z,4.81
2018-11-23T10:25:28.491Z,4.84
2018-11-23T10:27:56.255Z,4.89
2018-11-23T10:30:26.119Z,4.87
2018-11-23T10:32:55.047Z,5.06
2018-11-23T10:35:22.802Z,4.97
2018-11-23T10:37:51.629Z,4.92
2018-11-23T10:40:20.382Z,5.03
2018-11-23T10:42:47.833Z,4.96
2018-11-23T10:45:17.344Z,4.94
2018-11-23T10:47:45.330Z,4.97
2018-11-23T10:50:14.688Z,4.95
2018-11-23T10:52:42.165Z,4.99
2018-11-23T10:55:12.391Z,5.02
2018-11-23T10:57:39.823Z,5.06
2018-11-23T11:00:14.638Z,5.13
2018-11-23T11:02:44.195Z,5.15
2018-11-23T11:05:17.271Z,5.11
2018-11-23T11:07:44.826Z,5.13
2018-11-23T11:10:12.895Z,5.16
2018-11-23T11:12:41.215Z,5.20
2018-11-23T11:15:08.976Z,5.23
2018-11-23T11:17:36.511Z,5.27
2018-11-23T11:20:04.499Z,5.22
2018-11-23T11:22:32.202Z,5.29
2018-11-23T11:24:59.594Z,5.43
2018-11-23T11:27:27.063Z,5.38
2018-11-23T11:29:54.538Z,5.33
2018-11-23T11:32:21.967Z,5.35
2018-11-23T11:34:49.539Z,5.37
2018-11-23T11:37:17.009Z,5.44
2018-11-23T11:39:44.427Z,5.53
2018-11-23T11:42:12.288Z,5.54
2018-11-23T11:44:39.723Z,5.65
2018-11-23T11:47:07.199Z,5.57
2018-11-23T11:49:34.635Z,5.48
2018-11-23T11:52:02.079Z,5.51
2018-11-23T11:54:29.447Z,5.59
2018-11-23T11:56:56.909Z,5.57
2018-11-23T11:59:24.296Z,5.67
2018-11-23T12:01:51.715Z,5.72
2018-11-23T12:04:19.238Z,5.67
2018-11-23T12:06:47.102Z,5.63
2018-11-23T12:09:14.526Z,5.66
2018-11-23T12:11:41.951Z,5.68
2018-11-23T12:14:09.380Z,5.84
2018-11-23T12:16:36.914Z,5.82
2018-11-23T12:19:05.623Z,5.78
2018-11-23T12:21:32.365Z,5.80
2018-11-23T12:23:59.760Z,5.88
2018-11-23T12:26:27.206Z,5.96
2018-11-23T12:28:54.606Z,5.90
2018-11-23T12:31:22.041Z,5.90
2018-11-23T12:33:49.461Z,5.89
2018-11-23T12:36:16.917Z,6.04
2018-11-23T12:38:44.364Z,6.05
2018-11-23T12:41:11.816Z,5.98
2018-11-23T12:43:39.359Z,6.02
2018-11-23T12:46:06.784Z,6.09
2018-11-23T12:48:34.208Z,6.05
2018-11-23T12:51:01.737Z,6.19
2018-11-23T12:53:29.148Z,6.09
2018-11-23T12:55:56.679Z,6.02
2018-11-23T12:58:24.257Z,6.04
2018-11-23T13:00:51.819Z,6.10
2018-11-23T13:03:19.246Z,6.04
2018-11-23T13:05:46.662Z,6.00
2018-11-23T13:08:14.065Z,6.14
2018-11-23T13:10:41.543Z,6.21
2018-11-23T13:13:11.955Z,6.31
2018-11-23T13:15:39.526Z,6.28
2018-11-23T13:18:06.955Z,6.29
2018-11-23T13:20:34.383Z,6.24
2018-11-23T13:23:01.856Z,6.17
2018-11-23T13:25:30.771Z,6.24
2018-11-23T13:27:58.500Z,6.24
2018-11-23T13:30:28.315Z,6.26
2018-11-23T13:32:55.894Z,6.28
2018-11-23T13:35:25.429Z,6.25
2018-11-23T13:37:53.154Z,6.17
2018-11-23T13:40:21.942Z,6.27
2018-11-23T13:42:49.990Z,6.25
2018-11-23T13:45:18.880Z,6.14
2018-11-23T13:47:46.341Z,6.13
2018-11-23T13:50:15.228Z,6.09
2018-11-23T13:52:43.806Z,6.13
2018-11-23T13:55:11.398Z,6.22
2018-11-23T13:57:38.838Z,6.26
2018-11-23T14:00:11.694Z,6.32
2018-11-23T14:02:39.307Z,6.27
2018-11-23T14:05:09.467Z,6.23
2018-11-23T14:07:36.990Z,6.15
2018-11-23T14:10:07.389Z,6.14
2018-11-23T14:12:34.829Z,6.05
2018-11-23T14:15:02.308Z,6.10
2018-11-23T14:17:29.725Z,6.14
2018-11-23T14:19:58.169Z,6.23
2018-11-23T14:22:25.603Z,6.25
2018-11-23T14:24:53.122Z,6.16
2018-11-23T14:27:20.565Z,6.06
2018-11-23T14:29:48.019Z,6.03
2018-11-23T14:32:15.439Z,6.06
2018-11-23T14:34:42.871Z,6.04
2018-11-23T14:37:10.343Z,6.05
2018-11-23T14:39:37.734Z,6.04
2018-11-23T14:42:05.547Z,6.04
2018-11-23T14:44:33.040Z,5.91
2018-11-23T14:47:00.595Z,5.86
2018-11-23T14:49:27.995Z,5.74
2018-11-23T14:51:55.446Z,5.72
2018-11-23T14:54:22.912Z,5.65
2018-11-23T14:56:50.363Z,5.55
2018-11-23T14:59:17.779Z,5.45
2018-11-23T15:01:48.312Z,5.34
2018-11-23T15:04:12.675Z,5.30
2018-11-23T15:06:40.162Z,5.25
2018-11-23T15:09:08.923Z,5.18
2018-11-23T15:11:36.819Z,4.99
2018-11-23T15:14:05.018Z,4.88
2018-11-23T15:16:32.501Z,4.81
2018-11-23T15:18:59.975Z,4.72
2018-11-23T15:21:27.396Z,4.57
2018-11-23T15:23:54.931Z,4.52
2018-11-23T15:26:22.389Z,4.55
2018-11-23T15:28:49.786Z,4.41
2018-11-23T15:31:17.204Z,4.37
2018-11-23T15:33:44.743Z,4.25
2018-11-23T15:36:12.319Z,4.18
2018-11-23T15:38:39.805Z,4.06
2018-11-23T15:41:07.211Z,4.02
2018-11-23T15:43:34.655Z,3.91
2018-11-23T15:46:02.138Z,4.04
2018-11-23T15:48:29.643Z,3.86
2018-11-23T15:51:01.556Z,3.82
2018-11-23T15:53:28.999Z,3.79
2018-11-23T15:55:56.531Z,3.67
2018-11-23T15:58:23.997Z,3.71
2018-11-23T16:00:51.387Z,3.71
2018-11-23T16:03:18.828Z,3.76
2018-11-23T16:05:46.243Z,3.69
2018-11-23T16:08:16.151Z,3.74
2018-11-23T16:10:43.561Z,3.87
2018-11-23T16:13:11.758Z,3.94
2018-11-23T16:15:38.911Z,4.02
2018-11-23T16:18:07.172Z,4.21
2018-11-23T16:20:36.890Z,4.06
2018-11-23T16:23:06.151Z,4.08
2018-11-23T16:25:33.813Z,4.06
2018-11-23T16:28:02.843Z,4.06
2018-11-23T16:30:31.851Z,4.17
2018-11-23T16:33:00.495Z,4.14
2018-11-23T16:35:29.435Z,4.12
2018-11-23T16:37:58.059Z,4.05
2018-11-23T16:40:26.860Z,4.15
2018-11-23T16:42:55.090Z,4.02
2018-11-23T16:45:25.345Z,4.12
2018-11-23T16:47:53.625Z,4.04
2018-11-23T16:50:21.092Z,3.98
2018-11-23T16:52:49.292Z,4.03
2018-11-23T16:55:17.856Z,4.04
2018-11-23T16:57:46.911Z,4.03
2018-11-23T17:00:18.657Z,4.01
2018-11-23T17:02:46.170Z,4.10
2018-11-23T17:05:15.103Z,4.00
2018-11-23T17:07:42.611Z,3.98
2018-11-23T17:10:11.975Z,4.09
2018-11-23T17:12:40.005Z,4.13
2018-11-23T17:15:09.493Z,4.00
2018-11-23T17:17:37.319Z,4.02
2018-11-23T17:20:06.066Z,4.21
2018-11-23T17:22:33.508Z,4.20
2018-11-23T17:25:00.927Z,4.10
2018-11-23T17:27:28.450Z,3.97
2018-11-23T17:29:56.032Z,3.98
2018-11-23T17:32:23.668Z,4.04
2018-11-23T17:34:51.190Z,3.95
2018-11-23T17:37:18.644Z,4.00
2018-11-23T17:39:46.231Z,4.01
2018-11-23T17:42:13.830Z,4.00
2018-11-23T17:44:41.234Z,4.00
2018-11-23T17:47:08.698Z,4.00
2018-11-23T17:49:36.141Z,4.01
2018-11-23T17:52:04.016Z,3.91
2018-11-23T17:54:31.441Z,3.89
2018-11-23T17:56:58.896Z,3.98
2018-11-23T17:59:30.851Z,3.98
2018-11-23T18:01:58.444Z,4.12
2018-11-23T18:04:25.932Z,4.11
2018-11-23T18:06:53.388Z,4.05
2018-11-23T18:09:20.816Z,3.98
2018-11-23T18:11:48.407Z,3.97
2018-11-23T18:14:15.861Z,4.03
2018-11-23T18:16:43.380Z,4.09
2018-11-23T18:19:10.896Z,4.15
2018-11-23T18:21:38.297Z,4.03
2018-11-23T18:24:05.752Z,4.06
2018-11-23T18:26:33.226Z,4.21
2018-11-23T18:29:00.732Z,4.22
2018-11-23T18:31:28.248Z,4.17
2018-11-23T18:33:55.854Z,4.15
2018-11-23T18:36:23.366Z,4.13
2018-11-23T18:38:50.854Z,4.12
2018-11-23T18:41:18.395Z,4.13
2018-11-23T18:43:45.949Z,4.09
2018-11-23T18:46:13.373Z,4.11
2018-11-23T18:48:40.825Z,4.18
2018-11-23T18:51:08.298Z,4.13
2018-11-23T18:53:35.878Z,4.03
2018-11-23T18:56:03.360Z,3.99
2018-11-23T18:58:30.820Z,3.99
2018-11-23T19:00:58.241Z,4.10
2018-11-23T19:03:25.688Z,4.06
2018-11-23T19:05:53.121Z,4.00
2018-11-23T19:08:20.550Z,3.98
2018-11-23T19:10:48.595Z,4.12
2018-11-23T19:13:16.134Z,4.00
2018-11-23T19:15:43.537Z,3.93
2018-11-23T19:18:11.018Z,3.93
2018-11-23T19:20:38.461Z,3.94
2018-11-23T19:23:05.969Z,3.97
2018-11-23T19:25:33.420Z,4.01
2018-11-23T19:28:00.880Z,4.07
2018-11-23T19:30:29.049Z,4.12
2018-11-23T19:32:55.809Z,4.10
2018-11-23T19:35:23.373Z,4.08
2018-11-23T19:37:50.932Z,4.12
2018-11-23T19:40:18.392Z,4.14
2018-11-23T19:42:45.828Z,4.25
2018-11-23T19:45:15.523Z,4.24
2018-11-23T19:47:42.999Z,4.22
2018-11-23T19:50:12.544Z,4.24
2018-11-23T19:52:40.596Z,4.28
2018-11-23T19:55:08.996Z,4.35
2018-11-23T19:57:36.626Z,4.25
2018-11-23T20:00:09.785Z,4.25
2018-11-23T20:02:37.343Z,4.23
2018-11-23T20:05:07.239Z,4.27
2018-11-23T20:07:34.750Z,4.21
2018-11-23T20:10:02.293Z,4.23
2018-11-23T20:12:29.750Z,4.22
2018-11-23T20:15:01.291Z,4.26
2018-11-23T20:17:27.723Z,4.23
2018-11-23T20:19:55.123Z,4.19
2018-11-23T20:22:22.642Z,4.22
2018-11-23T20:24:50.086Z,4.27
2018-11-23T20:27:17.496Z,4.28
2018-11-23T20:29:44.920Z,4.32
2018-11-23T20:32:12.380Z,4.38
2018-11-23T20:34:39.840Z,4.35
2018-11-23T20:37:07.307Z,4.28
2018-11-23T20:39:34.882Z,4.23
2018-11-23T20:42:02.307Z,4.22
2018-11-23T20:44:29.990Z,4.22
2018-11-23T20:46:57.437Z,4.22
2018-11-23T20:49:24.881Z,4.21
2018-11-23T20:51:52.455Z,4.18
2018-11-23T20:54:19.987Z,4.23
2018-11-23T20:56:47.581Z,4.20
2018-11-23T20:59:15.024Z,4.19
2018-11-23T21:01:42.474Z,4.18
2018-11-23T21:04:09.863Z,4.18
2018-11-23T21:06:37.990Z,4.35
2018-11-23T21:09:08.468Z,4.27
2018-11-23T21:11:36.192Z,4.23
2018-11-23T21:14:04.292Z,4.22
2018-11-23T21:16:31.744Z,4.24
2018-11-23T21:18:59.152Z,4.24
2018-11-23T21:21:26.586Z,4.24
2018-11-23T21:23:54.088Z,4.44
2018-11-23T21:26:21.536Z,4.31
2018-11-23T21:28:48.991Z,4.25
2018-11-23T21:31:16.593Z,4.18
2018-11-23T21:33:43.984Z,4.11
2018-11-23T21:36:11.462Z,4.14
2018-11-23T21:38:38.967Z,4.17
2018-11-23T21:41:06.391Z,4.11
2018-11-23T21:43:33.899Z,4.05
2018-11-23T21:46:01.363Z,4.06
2018-11-23T21:48:30.430Z,4.05
2018-11-23T21:50:57.869Z,4.07
2018-11-23T21:53:25.343Z,4.04
2018-11-23T21:55:52.928Z,4.05
2018-11-23T21:58:20.408Z,4.05
2018-11-23T22:00:47.844Z,4.09
2018-11-23T22:03:15.248Z,4.13
2018-11-23T22:05:42.756Z,4.16
2018-11-23T22:08:10.184Z,4.12
2018-11-23T22:10:37.618Z,4.10
2018-11-23T22:13:05.395Z,4.11
2018-11-23T22:15:32.869Z,4.12
2018-11-23T22:18:00.340Z,4.08
2018-11-23T22:20:27.800Z,4.10
2018-11-23T22:22:55.362Z,4.09
2018-11-23T22:25:23.220Z,4.08
2018-11-23T22:27:50.771Z,4.08
2018-11-23T22:30:25.694Z,4.02
2018-11-23T22:32:53.226Z,3.98
2018-11-23T22:35:20.708Z,4.04
2018-11-23T22:37:48.166Z,4.09
2018-11-23T22:40:18.046Z,4.10
2018-11-23T22:42:46.382Z,4.06
2018-11-23T22:45:14.723Z,3.99
2018-11-23T22:47:42.199Z,3.99
2018-11-23T22:50:18.693Z,3.99
2018-11-23T22:52:46.265Z,3.96
2018-11-23T22:55:14.506Z,3.96
2018-11-23T22:57:41.921Z,3.97
2018-11-23T23:00:19.396Z,3.98
2018-11-23T23:02:47.554Z,3.98
2018-11-23T23:05:15.004Z,3.97
2018-11-23T23:07:42.602Z,3.96
2018-11-23T23:10:10.116Z,3.94
2018-11-23T23:12:37.634Z,3.93
2018-11-23T23:15:07.344Z,3.88
2018-11-23T23:17:34.766Z,3.87
2018-11-23T23:20:02.239Z,3.79
2018-11-23T23:22:29.753Z,3.81
2018-11-23T23:24:57.164Z,3.77
2018-11-23T23:27:24.618Z,3.74
2018-11-23T23:29:52.235Z,3.74
2018-11-23T23:32:19.778Z,3.69
2018-11-23T23:34:47.196Z,3.68
2018-11-23T23:37:14.652Z,3.69
2018-11-23T23:39:42.206Z,3.69
2018-11-23T23:42:09.686Z,3.68
2018-11-23T23:44:37.124Z,3.71
2018-11-23T23:47:04.594Z,3.67
2018-11-23T23:49:31.950Z,3.71
2018-11-23T23:51:59.572Z,3.74
2018-11-23T23:54:26.954Z,3.79
2018-11-23T23:56:54.384Z,3.78
2018-11-23T23:59:21.973Z,3.80
